»·PEaware :: N701SP KOXR-KSEE

N701SP :: KOXR-KSEE

FLIGHT INFORMATION

Flight Status: Arrived
Operator: Privately registered:
United States
More flights under this callsign
Pilot: Victor S. (9726)
Aircraft: CESSNA 172 SKYHAWK
(C172)
More flights by this aircraft type
Origin: KOXR Oxnard
United States
Destination: KSEE Gillespie
United States
More flights between these airports :: More routes between these airports
Route:
File this flight plan on PilotEdge
Remarks: nffe
Altitude:
(Current/Filed)
3,500ft
Speed:
(Current/Filed)
0kts
Departed: 04-Jan-21 12:31 PM
Arrived: 04-Jan-21 01:26 PM
Distance/Time
Traveled:
139nm/0:55
Distance/Time
To Go:
Arrived

Flight Plot

Page will automatically refresh every two minutes.

Flight plan parsing failed; only flown route is shown


Map Options




Map Legend


Flown Route
Filed Route
Departure Airport
Arrival Airport
Navaid (VOR, NDB)
Fix

Horizontal Profiles

Position Reports

Time Latitude Longitude Heading Altitude Ground
Speed
04-Jan-21 12:29 33.819747 -118.302302 140 3488ft 103kts
04-Jan-21 12:30 33.799729 -118.277436 122 3469ft 104kts
04-Jan-21 12:31 33.785969 -118.247505 114 3500ft 102kts
04-Jan-21 12:32 33.774912 -118.216136 111 3515ft 102kts
04-Jan-21 12:33 33.763664 -118.184848 112 3533ft 102kts
04-Jan-21 12:34 33.754036 -118.152713 103 3541ft 102kts
04-Jan-21 12:35 33.739354 -118.123662 127 3549ft 101kts
04-Jan-21 12:36 33.722231 -118.096443 126 3556ft 102kts
04-Jan-21 12:37 33.705568 -118.068167 125 3543ft 103kts
04-Jan-21 12:39 33.689421 -118.039594 120 3545ft 103kts
04-Jan-21 12:40 33.673279 -118.011063 128 3539ft 103kts
04-Jan-21 12:41 33.656123 -117.983459 122 3541ft 103kts
04-Jan-21 12:42 33.640284 -117.954439 122 3529ft 103kts
04-Jan-21 12:43 33.625206 -117.924679 115 3517ft 104kts
04-Jan-21 12:44 33.609333 -117.896773 128 3563ft 100kts
04-Jan-21 12:45 33.590101 -117.872800 143 3606ft 98kts
04-Jan-21 12:46 33.569756 -117.849684 136 3596ft 102kts
04-Jan-21 12:47 33.549743 -117.825202 134 3599ft 102kts
04-Jan-21 12:48 33.528782 -117.801833 132 3602ft 102kts
04-Jan-21 12:49 33.507100 -117.779558 143 3609ft 102kts
04-Jan-21 12:50 33.485933 -117.756530 135 3600ft 103kts
04-Jan-21 12:51 33.463684 -117.734515 127 3584ft 104kts
04-Jan-21 12:52 33.445896 -117.707606 134 3590ft 103kts
04-Jan-21 12:53 33.426855 -117.681572 127 3563ft 104kts
04-Jan-21 12:53 33.411149 -117.658893 127 3521ft 106kts
04-Jan-21 12:54 33.392384 -117.632360 130 3545ft 102kts
04-Jan-21 12:56 33.370847 -117.601801 127 3545ft 103kts
04-Jan-21 12:57 33.351901 -117.576441 140 3570ft 101kts
04-Jan-21 12:57 33.335782 -117.555723 133 3568ft 103kts
04-Jan-21 12:58 33.316884 -117.529949 129 3580ft 102kts
04-Jan-21 12:59 33.296138 -117.505964 137 3558ft 104kts
04-Jan-21 13:00 33.274189 -117.483367 137 3546ft 104kts
04-Jan-21 13:01 33.252570 -117.460063 143 3532ft 104kts
04-Jan-21 13:02 33.230718 -117.437171 133 3520ft 104kts
04-Jan-21 13:03 33.210257 -117.412490 134 3510ft 104kts
04-Jan-21 13:04 33.190620 -117.387226 131 3520ft 103kts
04-Jan-21 13:05 33.171573 -117.361287 130 3513ft 104kts
04-Jan-21 13:06 33.151296 -117.336952 142 3520ft 103kts
04-Jan-21 13:07 33.128531 -117.315954 143 3523ft 103kts
04-Jan-21 13:08 33.106807 -117.293533 135 3527ft 103kts
04-Jan-21 13:09 33.085342 -117.270634 143 3530ft 103kts
04-Jan-21 13:10 33.062253 -117.249365 140 3538ft 103kts
04-Jan-21 13:11 33.039528 -117.228326 142 3564ft 102kts
04-Jan-21 13:12 33.017300 -117.207156 143 3592ft 102kts
04-Jan-21 13:13 32.994757 -117.185836 140 3599ft 104kts
04-Jan-21 13:14 32.971356 -117.162985 139 3507ft 108kts
04-Jan-21 13:15 32.948001 -117.140515 141 3487ft 106kts
04-Jan-21 13:16 32.925821 -117.117322 137 3481ft 106kts
04-Jan-21 13:17 32.903395 -117.094645 141 3501ft 103kts
04-Jan-21 13:18 32.884976 -117.068893 119 3506ft 105kts
04-Jan-21 13:19 32.871608 -117.037497 114 3484ft 106kts
04-Jan-21 13:20 32.861021 -117.006056 111 3067ft 99kts
04-Jan-21 13:21 32.849976 -116.975897 111 2269ft 100kts
04-Jan-21 13:22 32.841393 -116.944851 122 1514ft 98kts
04-Jan-21 13:23 32.821505 -116.940207 243 1007ft 76kts
04-Jan-21 13:24 32.824816 -116.962089 281 535ft 64kts
04-Jan-21 13:25 32.826146 -116.971619 227 372ft 0kts

Navigation Log

Ident Type
Flight plan parsing failed, navigation log unavailable